Shinkai Maru — JJ4012 — position and weather

sailwx.info

Track history (hours):
 
Tides and Currents Weather Stations Pressure Air Temp Water Temp Dewpoint Dewpoint Depression Visibility Wind Speed Wind Dir Waves Ship Positions

Shinkai Maru

Last reported at 2014-Sep-01 01:21 UTC. Time now 2014-Sep-03 02:24 UTC.
Position N 34°26' E 135°02'.

Length 76 m; draft 4.6 m.

Type: Cargo ship. MMSI: 431301346.

Date/timePositionNaut miles runAvg speedWind from/ knotsBaromVisibWave heightAir tempDewpointWater temp
2014-Sep-01 01:21N 34°26' E 135°02'1012.0
2014-Sep-01 00:33N 34°34' E 135°08'5 5.3
2014-Aug-31 23:32N 34°39' E 135°12'0 0.1
2014-Aug-31 22:32N 34°39' E 135°12'0 0.0
2014-Aug-31 21:32N 34°39' E 135°12'0 0.1
2014-Aug-31 20:32N 34°39' E 135°12'0 0.0
2014-Aug-31 19:32N 34°39' E 135°12'0 0.0
2014-Aug-31 18:32N 34°39' E 135°12'3 2.8
2014-Aug-31 17:33N 34°37' E 135°09'1110.5
2014-Aug-31 16:33N 34°36' E 134°56'2 0.1
2014-Aug-30 06:30N 34°37' E 134°54'910.0
2014-Aug-30 05:33N 34°35' E 135°05'2512.2
2014-Aug-30 03:33N 34°11' E 134°60'21010.5
2014-Aug-29 07:28N 34°48' E 139°11'2211.7
2014-Aug-29 05:33N 35°02' E 139°32'1313.2
2014-Aug-29 04:33N 35°11' E 139°44'1111.5
2014-Aug-29 03:33N 35°22' E 139°42'1211.6
2014-Aug-29 02:33N 35°30' E 139°52'1111.2
2014-Aug-29 01:33N 35°40' E 139°57'0 0.2
2014-Aug-29 00:30N 35°41' E 139°58'0 0.0
2014-Aug-28 23:30N 35°41' E 139°58'0 0.0
2014-Aug-28 22:24N 35°41' E 139°58'0 0.0
2014-Aug-28 21:33N 35°41' E 139°58'0 0.0
2014-Aug-28 20:33N 35°41' E 139°58'0 0.0
2014-Aug-28 19:30N 35°41' E 139°58'0 0.0
2014-Aug-28 18:33N 35°41' E 139°58'0 0.0
2014-Aug-28 17:33N 35°41' E 139°58'0 0.0
2014-Aug-28 16:33N 35°41' E 139°58'0 0.0
2014-Aug-28 15:30N 35°41' E 139°58'0 0.0
2014-Aug-28 14:33N 35°41' E 139°58'0 0.0
2014-Aug-28 13:24N 35°41' E 139°58'0 0.0
2014-Aug-28 12:33N 35°41' E 139°58'0 0.0
2014-Aug-28 11:30N 35°41' E 139°58'0 0.0
2014-Aug-28 10:33N 35°41' E 139°58'0 0.0
2014-Aug-28 09:33N 35°41' E 139°58'0 0.0
2014-Aug-28 08:30N 35°41' E 139°58'0 0.0
2014-Aug-28 07:30N 35°41' E 139°58'0 0.0
2014-Aug-28 06:30N 35°41' E 139°58'0 0.0
2014-Aug-28 05:33N 35°41' E 139°58'0 0.0
2014-Aug-28 04:33N 35°41' E 139°58'0 0.0
2014-Aug-28 03:33N 35°41' E 139°58'0 0.0
2014-Aug-28 02:24N 35°41' E 139°58'0 0.0
2014-Aug-28 01:33N 35°41' E 139°58'0 0.0
2014-Aug-28 00:33N 35°41' E 139°58'0 0.0
2014-Aug-27 23:27N 35°41' E 139°58'0 0.0
2014-Aug-27 22:33N 35°41' E 139°58'0 0.0
2014-Aug-27 21:30N 35°41' E 139°58'0 0.0
2014-Aug-27 20:33N 35°41' E 139°58'0 0.0
2014-Aug-27 19:33N 35°41' E 139°58'0 0.0
2014-Aug-27 18:30N 35°41' E 139°58'0 0.0
2014-Aug-27 17:27N 35°41' E 139°58'0 0.0
2014-Aug-27 16:33N 35°41' E 139°58'0 0.0
2014-Aug-27 15:33N 35°41' E 139°58'0 0.0
2014-Aug-27 14:33N 35°41' E 139°58'0 0.0
2014-Aug-27 13:33N 35°41' E 139°58'0 0.0
2014-Aug-27 12:33N 35°41' E 139°58'4 3.6
2014-Aug-27 11:34N 35°37' E 139°59'1211.6
2014-Aug-27 10:33N 35°28' E 139°50'1110.5
2014-Aug-27 09:33N 35°18' E 139°44'1010.1
2014-Aug-27 08:33N 35°08' E 139°45'1211.7
2014-Aug-27 07:33N 35°00' E 139°35'232 5.8
2014-Aug-25 15:30N 34°14' E 134°58'1212.2
2014-Aug-25 14:31N 34°26' E 135°01'1010.6
2014-Aug-25 13:33N 34°36' E 135°02'  
2014-Aug-22 20:30N 34°38' E 134°51'1212.1
2014-Aug-22 19:33N 34°35' E 135°05'1311.8
2014-Aug-22 18:29N 34°23' E 135°02'1011.1
2014-Aug-22 17:33N 34°13' E 134°60'  
Track history (hours):
 
Tides and Currents Weather Stations Pressure Air Temp Water Temp Dewpoint Dewpoint Depression Visibility Wind Speed Wind Dir Waves Ship Positions

Shinkai Maru

Last reported at 2014-Sep-01 01:21 UTC. Time now 2014-Sep-03 02:24 UTC.
Position N 34°26' E 135°02'.

Length 76 m; draft 4.6 m.

Type: Cargo ship. MMSI: 431301346.

Date/timePositionNaut miles runAvg speedWind from/ knotsBaromVisibWave heightAir tempDewpointWater temp
2014-Sep-01 01:21N 34°26' E 135°02'1012.0
2014-Sep-01 00:33N 34°34' E 135°08'5 5.3
2014-Aug-31 23:32N 34°39' E 135°12'0 0.1
2014-Aug-31 22:32N 34°39' E 135°12'0 0.0
2014-Aug-31 21:32N 34°39' E 135°12'0 0.1
2014-Aug-31 20:32N 34°39' E 135°12'0 0.0
2014-Aug-31 19:32N 34°39' E 135°12'0 0.0
2014-Aug-31 18:32N 34°39' E 135°12'3 2.8
2014-Aug-31 17:33N 34°37' E 135°09'1110.5
2014-Aug-31 16:33N 34°36' E 134°56'2 0.1
2014-Aug-30 06:30N 34°37' E 134°54'910.0
2014-Aug-30 05:33N 34°35' E 135°05'2512.2
2014-Aug-30 03:33N 34°11' E 134°60'21010.5
2014-Aug-29 07:28N 34°48' E 139°11'2211.7
2014-Aug-29 05:33N 35°02' E 139°32'1313.2
2014-Aug-29 04:33N 35°11' E 139°44'1111.5
2014-Aug-29 03:33N 35°22' E 139°42'1211.6
2014-Aug-29 02:33N 35°30' E 139°52'1111.2
2014-Aug-29 01:33N 35°40' E 139°57'0 0.2
2014-Aug-29 00:30N 35°41' E 139°58'0 0.0
2014-Aug-28 23:30N 35°41' E 139°58'0 0.0
2014-Aug-28 22:24N 35°41' E 139°58'0 0.0
2014-Aug-28 21:33N 35°41' E 139°58'0 0.0
2014-Aug-28 20:33N 35°41' E 139°58'0 0.0
2014-Aug-28 19:30N 35°41' E 139°58'0 0.0
2014-Aug-28 18:33N 35°41' E 139°58'0 0.0
2014-Aug-28 17:33N 35°41' E 139°58'0 0.0
2014-Aug-28 16:33N 35°41' E 139°58'0 0.0
2014-Aug-28 15:30N 35°41' E 139°58'0 0.0
2014-Aug-28 14:33N 35°41' E 139°58'0 0.0
2014-Aug-28 13:24N 35°41' E 139°58'0 0.0
2014-Aug-28 12:33N 35°41' E 139°58'0 0.0
2014-Aug-28 11:30N 35°41' E 139°58'0 0.0
2014-Aug-28 10:33N 35°41' E 139°58'0 0.0
2014-Aug-28 09:33N 35°41' E 139°58'0 0.0
2014-Aug-28 08:30N 35°41' E 139°58'0 0.0
2014-Aug-28 07:30N 35°41' E 139°58'0 0.0
2014-Aug-28 06:30N 35°41' E 139°58'0 0.0
2014-Aug-28 05:33N 35°41' E 139°58'0 0.0
2014-Aug-28 04:33N 35°41' E 139°58'0 0.0
2014-Aug-28 03:33N 35°41' E 139°58'0 0.0
2014-Aug-28 02:24N 35°41' E 139°58'0 0.0
2014-Aug-28 01:33N 35°41' E 139°58'0 0.0
2014-Aug-28 00:33N 35°41' E 139°58'0 0.0
2014-Aug-27 23:27N 35°41' E 139°58'0 0.0
2014-Aug-27 22:33N 35°41' E 139°58'0 0.0
2014-Aug-27 21:30N 35°41' E 139°58'0 0.0
2014-Aug-27 20:33N 35°41' E 139°58'0 0.0
2014-Aug-27 19:33N 35°41' E 139°58'0 0.0
2014-Aug-27 18:30N 35°41' E 139°58'0 0.0
2014-Aug-27 17:27N 35°41' E 139°58'0 0.0
2014-Aug-27 16:33N 35°41' E 139°58'0 0.0
2014-Aug-27 15:33N 35°41' E 139°58'0 0.0
2014-Aug-27 14:33N 35°41' E 139°58'0 0.0
2014-Aug-27 13:33N 35°41' E 139°58'0 0.0
2014-Aug-27 12:33N 35°41' E 139°58'4 3.6
2014-Aug-27 11:34N 35°37' E 139°59'1211.6
2014-Aug-27 10:33N 35°28' E 139°50'1110.5
2014-Aug-27 09:33N 35°18' E 139°44'1010.1
2014-Aug-27 08:33N 35°08' E 139°45'1211.7
2014-Aug-27 07:33N 35°00' E 139°35'232 5.8
2014-Aug-25 15:30N 34°14' E 134°58'1212.2
2014-Aug-25 14:31N 34°26' E 135°01'1010.6
2014-Aug-25 13:33N 34°36' E 135°02'  
2014-Aug-22 20:30N 34°38' E 134°51'1212.1
2014-Aug-22 19:33N 34°35' E 135°05'1311.8
2014-Aug-22 18:29N 34°23' E 135°02'1011.1
2014-Aug-22 17:33N 34°13' E 134°60'  

Dump ship's entire track history